• Join FlightAware (Why Join?)
  • Login
  • US Flag 
08:51PM EST


 

Airport Tracker/Info


-or-


 

Live Flight TrackerFlight Track Log ✈ AMF1324 ✈ 27-Mar-2014 ✈ KBGM - KBUF

Flight Track Log - Related Links

Times and Time Zones

All times are in EDT time to prevent confusion due to time zone crossing. See the AMF1324 flight status page for this flight to view local times or setup timezone preferences in your user account.

Time Position Orientation Groundspeed Altitude Reporting Facility
EDT Latitude Longitude Course Direction KTS MPH feet Rate Location/Type
07:58AM 42.2511 -76.0122 291° West 194 223 6,700  Level New York Center
07:59AM 42.2711 -76.0783 292° West 194 223 8,500 1,860 Climbing New York Center
08:00AM 42.2953 -76.1419 297° West 189 217 10,500 1,380 Climbing New York Center
08:02AM 42.3294 -76.2281 298° West 180 207 12,100 600 Climbing Cleveland Center
08:03AM 42.1881 -76.2142 294° West  Level FlightAware Approximate
08:03AM 42.3522 -76.3028 292° West 209 241 12,100  Level Cleveland Center
08:04AM 42.3753 -76.3775 293° West 211 243 12,000 -60 Descending Cleveland Center
08:05AM 42.4031 -76.4592 295° West 214 246 12,000  Level Cleveland Center
08:06AM 42.4264 -76.5333 293° West 215 247 12,000  Level Cleveland Center
08:07AM 42.4517 -76.6075 295° West 215 247 12,000  Level Cleveland Center
08:08AM 42.4761 -76.6811 294° West 215 247 12,000  Level Cleveland Center
08:09AM 42.5025 -76.7542 296° West 215 247 12,000  Level Cleveland Center
08:10AM 42.5297 -76.8289 296° West 217 250 12,000  Level Cleveland Center
08:11AM 42.5561 -76.9028 296° West 217 250 12,000  Level Cleveland Center
08:12AM 42.5878 -76.9911 296° West 217 250 12,000  Level Cleveland Center
08:13AM 42.6147 -77.0644 297° West 217 250 12,000  Level Cleveland Center
08:14AM 42.6411 -77.1375 296° West 217 250 12,000  Level Cleveland Center
08:15AM 42.6686 -77.2089 298° West 217 250 12,000  Level Cleveland Center
08:16AM 42.6958 -77.2808 297° West 216 249 12,000  Level Cleveland Center
08:17AM 42.7303 -77.3675 298° West 217 250 12,000 -60 Level Cleveland Center
08:18AM 42.7533 -77.4414 293° West 218 251 11,900  Descending Cleveland Center
08:18AM 42.7542 -77.4422 324° Northwest 217 250 12,000 -660 Climbing Cleveland Center
08:19AM 42.7742 -77.5044 294° West 219 252 11,300 -720 Descending Cleveland Center
08:19AM 42.7783 -77.5189 291° West 221 254 11,300 -1,140 Level Cleveland Center
08:20AM 42.7847 -77.5936 277° West 228 262 10,200 -1,080 Descending Cleveland Center
08:20AM 42.7842 -77.6056 266° West 231 266 10,200 -1,020 Level Cleveland Center
08:21AM 42.7889 -77.6842 275° West 224 258 9,200 -1,020 Descending Cleveland Center
08:21AM 42.7878 -77.6894 254° West 229 264 9,200 -1,500 Level Cleveland Center
08:22AM 42.7953 -77.7722 277° West 232 267 7,700 -1,680 Descending Cleveland Center
08:22AM 42.7956 -77.7928 271° West 230 265 7,500 -1,260 Descending Cleveland Center
08:24AM 42.8083 -77.8903 280° West 249 287 6,100 -1,080 Descending Cleveland Center
08:25AM 42.8239 -77.9778 284° West 229 264 5,400 -780 Descending Cleveland Center
08:26AM 42.8361 -78.0594 282° West 229 264 4,600 -720 Descending Cleveland Center
08:27AM 42.8453 -78.1519 278° West 231 266 4,000 -300 Descending Cleveland Center
08:28AM 42.8586 -78.2386 282° West 227 261 4,000  Level Cleveland Center
08:29AM 42.8672 -78.3258 278° West 226 260 4,000  Level Cleveland Center
08:30AM 42.8858 -78.4100 287° West 224 258 4,000 -180 Level Cleveland Center
08:31AM 42.9089 -78.4933 291° West 224 258 3,700 -780 Descending Cleveland Center
08:32AM 42.9297 -78.5686 291° West 222 255 2,400 -720 Descending Cleveland Center
08:33AM 42.9464 -78.6264 292° West 181 208 2,300 -420 Descending Cleveland Center
08:34AM 42.9667 -78.6667 305° West 105 121 1,600 -720 Descending Buffalo TRACON
08:35AM 42.9500 -78.7167 246° West 110 127 1,000 -600 Descending Buffalo TRACON
08:37AM 42.9333 -78.7167 270° West  Level FlightAware Approximate